sensor_id;sensor_type;location;lat;lon;timestamp;pressure;altitude;pressure_sealevel;temperature;humidity
77871;BME280;67067;46.850;7.578;2023-04-25T00:00:55;94881.03;;;8.69;35.80
77871;BME280;67067;46.850;7.578;2023-04-25T00:01:59;94873.91;;;8.69;35.98
77871;BME280;67067;46.850;7.578;2023-04-25T00:03:01;94882.06;;;8.68;36.03
77871;BME280;67067;46.850;7.578;2023-04-25T00:04:03;94873.59;;;8.66;35.97
77871;BME280;67067;46.850;7.578;2023-04-25T00:05:07;94872.31;;;8.68;36.31
77871;BME280;67067;46.850;7.578;2023-04-25T00:06:09;94876.03;;;8.72;36.37
77871;BME280;67067;46.850;7.578;2023-04-25T00:07:11;94877.25;;;8.59;36.31
77871;BME280;67067;46.850;7.578;2023-04-25T00:08:15;94879.16;;;8.69;36.28
77871;BME280;67067;46.850;7.578;2023-04-25T00:09:19;94872.63;;;8.72;36.42
77871;BME280;67067;46.850;7.578;2023-04-25T00:10:23;94874.44;;;8.71;36.25
77871;BME280;67067;46.850;7.578;2023-04-25T00:11:25;94871.34;;;8.74;36.47
77871;BME280;67067;46.850;7.578;2023-04-25T00:12:27;94872.34;;;8.73;36.57
77871;BME280;67067;46.850;7.578;2023-04-25T00:13:31;94872.34;;;8.73;36.37
77871;BME280;67067;46.850;7.578;2023-04-25T00:14:35;94870.56;;;8.79;36.59
77871;BME280;67067;46.850;7.578;2023-04-25T00:15:37;94869.78;;;8.78;36.49
77871;BME280;67067;46.850;7.578;2023-04-25T00:16:39;94863.47;;;8.79;36.63
77871;BME280;67067;46.850;7.578;2023-04-25T00:17:42;94868.19;;;8.77;37.76
77871;BME280;67067;46.850;7.578;2023-04-25T00:18:44;94862.78;;;8.67;37.49
77871;BME280;67067;46.850;7.578;2023-04-25T00:19:52;94861.31;;;8.76;37.01
77871;BME280;67067;46.850;7.578;2023-04-25T00:20:54;94859.06;;;8.63;37.15
77871;BME280;67067;46.850;7.578;2023-04-25T00:21:55;94859.72;;;8.75;36.58
77871;BME280;67067;46.850;7.578;2023-04-25T00:22:57;94856.41;;;8.63;36.79
77871;BME280;67067;46.850;7.578;2023-04-25T00:23:59;94856.22;;;8.70;36.75
77871;BME280;67067;46.850;7.578;2023-04-25T00:25:01;94853.66;;;8.75;36.68
77871;BME280;67067;46.850;7.578;2023-04-25T00:26:04;94853.41;;;8.76;36.49
77871;BME280;67067;46.850;7.578;2023-04-25T00:27:06;94854.31;;;8.65;36.66
77871;BME280;67067;46.850;7.578;2023-04-25T00:28:08;94849.41;;;8.74;36.66
77871;BME280;67067;46.850;7.578;2023-04-25T00:29:09;94853.00;;;8.62;36.79
77871;BME280;67067;46.850;7.578;2023-04-25T00:30:12;94849.66;;;8.72;36.44
77871;BME280;67067;46.850;7.578;2023-04-25T00:31:14;94853.97;;;8.78;36.67
77871;BME280;67067;46.850;7.578;2023-04-25T00:32:16;94849.06;;;8.65;36.89
77871;BME280;67067;46.850;7.578;2023-04-25T00:33:17;94849.19;;;8.75;36.38
77871;BME280;67067;46.850;7.578;2023-04-25T00:34:19;94850.47;;;8.73;36.51
77871;BME280;67067;46.850;7.578;2023-04-25T00:35:21;94848.88;;;8.72;36.45
77871;BME280;67067;46.850;7.578;2023-04-25T00:36:23;94844.38;;;8.72;36.87
77871;BME280;67067;46.850;7.578;2023-04-25T00:37:25;94841.09;;;8.60;36.98
77871;BME280;67067;46.850;7.578;2023-04-25T00:38:26;94844.28;;;8.62;36.61
77871;BME280;67067;46.850;7.578;2023-04-25T00:39:31;94833.50;;;8.63;36.38
77871;BME280;67067;46.850;7.578;2023-04-25T00:40:35;94840.09;;;8.66;36.70
77871;BME280;67067;46.850;7.578;2023-04-25T00:41:37;94836.41;;;8.67;36.75
77871;BME280;67067;46.850;7.578;2023-04-25T00:42:40;94837.94;;;8.63;36.60
77871;BME280;67067;46.850;7.578;2023-04-25T00:43:45;94838.50;;;8.65;36.92
77871;BME280;67067;46.850;7.578;2023-04-25T00:44:49;94835.31;;;8.63;36.83
77871;BME280;67067;46.850;7.578;2023-04-25T00:45:52;94835.31;;;8.63;37.05
77871;BME280;67067;46.850;7.578;2023-04-25T00:46:54;94834.81;;;8.66;36.90
77871;BME280;67067;46.850;7.578;2023-04-25T00:47:58;94836.91;;;8.64;36.97
77871;BME280;67067;46.850;7.578;2023-04-25T00:49:02;94836.34;;;8.62;36.83
77871;BME280;67067;46.850;7.578;2023-04-25T00:50:04;94830.53;;;8.60;37.11
77871;BME280;67067;46.850;7.578;2023-04-25T00:51:06;94828.41;;;8.57;36.72
77871;BME280;67067;46.850;7.578;2023-04-25T00:52:09;94832.56;;;8.53;36.62
77871;BME280;67067;46.850;7.578;2023-04-25T00:53:12;94835.47;;;8.51;36.96
77871;BME280;67067;46.850;7.578;2023-04-25T00:54:13;94835.09;;;8.42;36.98
77871;BME280;67067;46.850;7.578;2023-04-25T00:55:16;94834.13;;;8.48;37.08
77871;BME280;67067;46.850;7.578;2023-04-25T00:56:18;94827.25;;;8.47;37.24
77871;BME280;67067;46.850;7.578;2023-04-25T00:57:21;94834.13;;;8.48;37.04
77871;BME280;67067;46.850;7.578;2023-04-25T00:58:29;94824.88;;;8.46;37.18
77871;BME280;67067;46.850;7.578;2023-04-25T00:59:33;94832.53;;;8.47;36.77
77871;BME280;67067;46.850;7.578;2023-04-25T01:00:35;94819.59;;;8.46;37.24
77871;BME280;67067;46.850;7.578;2023-04-25T01:01:38;94817.25;;;8.49;36.85
77871;BME280;67067;46.850;7.578;2023-04-25T01:02:41;94820.69;;;8.50;36.63
77871;BME280;67067;46.850;7.578;2023-04-25T01:03:46;94813.56;;;8.50;36.75
77871;BME280;67067;46.850;7.578;2023-04-25T01:04:48;94807.56;;;8.55;36.71
77871;BME280;67067;46.850;7.578;2023-04-25T01:05:53;94799.88;;;8.54;36.94
77871;BME280;67067;46.850;7.578;2023-04-25T01:06:57;94791.97;;;8.54;36.62
77871;BME280;67067;46.850;7.578;2023-04-25T01:07:59;94792.22;;;8.52;36.72
77871;BME280;67067;46.850;7.578;2023-04-25T01:09:01;94800.28;;;8.40;37.21
77871;BME280;67067;46.850;7.578;2023-04-25T01:10:04;94792.47;;;8.50;36.74
77871;BME280;67067;46.850;7.578;2023-04-25T01:11:08;94788.03;;;8.56;36.53
77871;BME280;67067;46.850;7.578;2023-04-25T01:12:12;94798.88;;;8.60;36.81
77871;BME280;67067;46.850;7.578;2023-04-25T01:13:16;94796.25;;;8.60;37.20
77871;BME280;67067;46.850;7.578;2023-04-25T01:14:18;94802.06;;;8.62;36.69
77871;BME280;67067;46.850;7.578;2023-04-25T01:15:20;94797.06;;;8.60;36.78
77871;BME280;67067;46.850;7.578;2023-04-25T01:16:23;94799.97;;;8.64;36.65
77871;BME280;67067;46.850;7.578;2023-04-25T01:17:25;94801.06;;;8.68;36.50
77871;BME280;67067;46.850;7.578;2023-04-25T01:18:27;94807.78;;;8.54;36.86
77871;BME280;67067;46.850;7.578;2023-04-25T01:19:28;94800.28;;;8.68;36.72
77871;BME280;67067;46.850;7.578;2023-04-25T01:20:33;94809.53;;;8.70;36.88
77871;BME280;67067;46.850;7.578;2023-04-25T01:21:35;94803.19;;;8.71;36.47
77871;BME280;67067;46.850;7.578;2023-04-25T01:22:36;94808.22;;;8.45;36.75
77871;BME280;67067;46.850;7.578;2023-04-25T01:23:40;94797.69;;;8.45;37.05
77871;BME280;67067;46.850;7.578;2023-04-25T01:24:41;94804.88;;;8.50;37.00
77871;BME280;67067;46.850;7.578;2023-04-25T01:25:44;94792.56;;;8.61;36.72
77871;BME280;67067;46.850;7.578;2023-04-25T01:26:46;94800.25;;;8.62;36.56
77871;BME280;67067;46.850;7.578;2023-04-25T01:27:57;94799.44;;;8.62;36.58
77871;BME280;67067;46.850;7.578;2023-04-25T01:29:04;94797.59;;;8.62;36.62
77871;BME280;67067;46.850;7.578;2023-04-25T01:30:06;94795.19;;;8.61;36.69
77871;BME280;67067;46.850;7.578;2023-04-25T01:31:09;94788.31;;;8.60;36.44
77871;BME280;67067;46.850;7.578;2023-04-25T01:32:13;94796.25;;;8.60;36.31
77871;BME280;67067;46.850;7.578;2023-04-25T01:33:19;94790.41;;;8.58;36.60
77871;BME280;67067;46.850;7.578;2023-04-25T01:34:22;94795.16;;;8.56;36.33
77871;BME280;67067;46.850;7.578;2023-04-25T01:35:24;94795.19;;;8.61;36.65
77871;BME280;67067;46.850;7.578;2023-04-25T01:36:28;94790.19;;;8.59;36.76
77871;BME280;67067;46.850;7.578;2023-04-25T01:37:30;94792.00;;;8.59;37.09
77871;BME280;67067;46.850;7.578;2023-04-25T01:38:35;94791.50;;;8.62;36.91
77871;BME280;67067;46.850;7.578;2023-04-25T01:39:37;94784.34;;;8.57;37.26
77871;BME280;67067;46.850;7.578;2023-04-25T01:40:40;94796.25;;;8.60;37.40
77871;BME280;67067;46.850;7.578;2023-04-25T01:41:42;94797.28;;;8.59;37.41
77871;BME280;67067;46.850;7.578;2023-04-25T01:42:44;94791.41;;;8.52;37.15
77871;BME280;67067;46.850;7.578;2023-04-25T01:43:47;94800.38;;;8.50;37.41
77871;BME280;67067;46.850;7.578;2023-04-25T01:44:49;94806.16;;;8.47;37.47
77871;BME280;67067;46.850;7.578;2023-04-25T01:45:51;94806.47;;;8.51;37.45
77871;BME280;67067;46.850;7.578;2023-04-25T01:46:53;94806.16;;;8.47;37.47
77871;BME280;67067;46.850;7.578;2023-04-25T01:47:55;94798.78;;;8.49;37.66
77871;BME280;67067;46.850;7.578;2023-04-25T01:49:01;94801.19;;;8.51;37.81
77871;BME280;67067;46.850;7.578;2023-04-25T01:50:04;94800.38;;;8.50;37.75
77871;BME280;67067;46.850;7.578;2023-04-25T01:51:07;94802.47;;;8.48;38.03
77871;BME280;67067;46.850;7.578;2023-04-25T01:52:09;94800.88;;;8.47;38.07
77871;BME280;67067;46.850;7.578;2023-04-25T01:53:12;94803.47;;;8.42;38.24
77871;BME280;67067;46.850;7.578;2023-04-25T01:54:19;94801.88;;;8.41;38.47
77871;BME280;67067;46.850;7.578;2023-04-25T01:55:23;94803.47;;;8.42;38.79
77871;BME280;67067;46.850;7.578;2023-04-25T01:56:36;94802.09;;;8.40;38.43
77871;BME280;67067;46.850;7.578;2023-04-25T01:57:41;94810.81;;;8.40;38.62
77871;BME280;67067;46.850;7.578;2023-04-25T01:58:46;94800.28;;;8.40;38.54
77871;BME280;67067;46.850;7.578;2023-04-25T02:00:02;94806.00;;;8.32;38.51
77871;BME280;67067;46.850;7.578;2023-04-25T02:01:13;94807.59;;;8.33;39.15
77871;BME280;67067;46.850;7.578;2023-04-25T02:02:22;94807.03;;;8.31;39.79
77871;BME280;67067;46.850;7.578;2023-04-25T02:03:24;94809.63;;;8.26;39.64
77871;BME280;67067;46.850;7.578;2023-04-25T02:04:26;94807.53;;;8.28;39.55
77871;BME280;67067;46.850;7.578;2023-04-25T02:05:34;94812.00;;;8.27;39.48
77871;BME280;67067;46.850;7.578;2023-04-25T02:06:36;94813.84;;;8.27;39.32
77871;BME280;67067;46.850;7.578;2023-04-25T02:07:38;94814.41;;;8.29;39.17
77871;BME280;67067;46.850;7.578;2023-04-25T02:08:39;94813.69;;;8.16;39.39
77871;BME280;67067;46.850;7.578;2023-04-25T02:09:41;94804.91;;;8.28;39.61
77871;BME280;67067;46.850;7.578;2023-04-25T02:10:45;94814.94;;;8.31;39.88
77871;BME280;67067;46.850;7.578;2023-04-25T02:11:52;94809.13;;;8.29;39.88
77871;BME280;67067;46.850;7.578;2023-04-25T02:13:22;94809.63;;;8.26;39.53
77871;BME280;67067;46.850;7.578;2023-04-25T02:14:36;94815.94;;;8.25;40.18
77871;BME280;67067;46.850;7.578;2023-04-25T02:15:59;94820.31;;;8.19;40.62
77871;BME280;67067;46.850;7.578;2023-04-25T02:17:01;94825.84;;;8.17;40.93
77871;BME280;67067;46.850;7.578;2023-04-25T02:18:04;94824.78;;;8.18;40.63
77871;BME280;67067;46.850;7.578;2023-04-25T02:19:07;94821.22;;;8.07;40.66
77871;BME280;67067;46.850;7.578;2023-04-25T02:20:10;94822.03;;;8.08;40.55
77871;BME280;67067;46.850;7.578;2023-04-25T02:21:16;94828.28;;;8.02;41.12
77871;BME280;67067;46.850;7.578;2023-04-25T02:22:17;94828.22;;;7.97;41.42
77871;BME280;67067;46.850;7.578;2023-04-25T02:23:20;94827.59;;;7.89;41.89
77871;BME280;67067;46.850;7.578;2023-04-25T02:24:23;94828.09;;;7.86;41.47
77871;BME280;67067;46.850;7.578;2023-04-25T02:25:27;94840.63;;;7.79;42.12
77871;BME280;67067;46.850;7.578;2023-04-25T02:26:29;94835.31;;;7.74;42.67
77871;BME280;67067;46.850;7.578;2023-04-25T02:27:34;94831.78;;;7.68;42.93
77871;BME280;67067;46.850;7.578;2023-04-25T02:28:35;94833.38;;;7.69;43.06
77871;BME280;67067;46.850;7.578;2023-04-25T02:29:39;94839.06;;;7.61;42.98
77871;BME280;67067;46.850;7.578;2023-04-25T02:30:42;94837.66;;;7.53;43.26
77871;BME280;67067;46.850;7.578;2023-04-25T02:31:44;94837.97;;;7.40;43.66
77871;BME280;67067;46.850;7.578;2023-04-25T02:32:46;94843.63;;;7.31;43.89
77871;BME280;67067;46.850;7.578;2023-04-25T02:33:48;94842.03;;;7.30;44.12
77871;BME280;67067;46.850;7.578;2023-04-25T02:34:50;94847.72;;;7.22;44.30
77871;BME280;67067;46.850;7.578;2023-04-25T02:35:52;94844.28;;;7.04;44.11
77871;BME280;67067;46.850;7.578;2023-04-25T02:36:56;94839.78;;;7.05;44.41
77871;BME280;67067;46.850;7.578;2023-04-25T02:37:57;94845.03;;;6.88;44.89
77871;BME280;67067;46.850;7.578;2023-04-25T02:39:00;94837.69;;;6.90;45.14
77871;BME280;67067;46.850;7.578;2023-04-25T02:40:02;94841.03;;;6.85;45.30
77871;BME280;67067;46.850;7.578;2023-04-25T02:41:06;94835.94;;;6.79;45.52
77871;BME280;67067;46.850;7.578;2023-04-25T02:42:08;94828.56;;;6.64;45.30
77871;BME280;67067;46.850;7.578;2023-04-25T02:43:11;94832.91;;;6.58;45.86
77871;BME280;67067;46.850;7.578;2023-04-25T02:44:12;94826.06;;;6.57;45.77
77871;BME280;67067;46.850;7.578;2023-04-25T02:45:17;94821.53;;;6.52;46.20
77871;BME280;67067;46.850;7.578;2023-04-25T02:46:21;94818.00;;;6.46;46.05
77871;BME280;67067;46.850;7.578;2023-04-25T02:47:42;94823.38;;;6.40;46.25
77871;BME280;67067;46.850;7.578;2023-04-25T02:48:45;94818.84;;;6.35;45.95
77871;BME280;67067;46.850;7.578;2023-04-25T02:49:47;94808.69;;;6.27;46.29
77871;BME280;67067;46.850;7.578;2023-04-25T02:50:48;94807.16;;;6.02;47.29
77871;BME280;67067;46.850;7.578;2023-04-25T02:51:52;94806.00;;;6.10;46.95
77871;BME280;67067;46.850;7.578;2023-04-25T02:52:54;94801.44;;;5.52;48.49
77871;BME280;67067;46.850;7.578;2023-04-25T02:54:01;94800.72;;;5.81;47.28
77871;BME280;67067;46.850;7.578;2023-04-25T02:55:04;94804.56;;;5.90;47.22
77871;BME280;67067;46.850;7.578;2023-04-25T02:56:09;94796.44;;;5.92;47.15
77871;BME280;67067;46.850;7.578;2023-04-25T02:57:10;94798.66;;;5.83;47.11
77871;BME280;67067;46.850;7.578;2023-04-25T02:58:12;94799.69;;;5.70;47.33
77871;BME280;67067;46.850;7.578;2023-04-25T02:59:19;94788.28;;;5.64;47.85
77871;BME280;67067;46.850;7.578;2023-04-25T03:00:21;94790.22;;;5.69;47.63
77871;BME280;67067;46.850;7.578;2023-04-25T03:01:23;94792.50;;;5.65;48.30
77871;BME280;67067;46.850;7.578;2023-04-25T03:02:25;94792.84;;;5.45;48.70
77871;BME280;67067;46.850;7.578;2023-04-25T03:03:29;94795.16;;;5.53;48.14
77871;BME280;67067;46.850;7.578;2023-04-25T03:04:31;94793.06;;;5.43;48.44
77871;BME280;67067;46.850;7.578;2023-04-25T03:05:34;94801.53;;;5.57;48.01
77871;BME280;67067;46.850;7.578;2023-04-25T03:06:36;94793.88;;;5.44;48.20
77871;BME280;67067;46.850;7.578;2023-04-25T03:07:40;94792.63;;;5.58;47.75
77871;BME280;67067;46.850;7.578;2023-04-25T03:08:44;94805.41;;;5.55;47.84
77871;BME280;67067;46.850;7.578;2023-04-25T03:09:45;94798.34;;;5.55;47.97
77871;BME280;67067;46.850;7.578;2023-04-25T03:10:47;94805.84;;;5.16;49.33
77871;BME280;67067;46.850;7.578;2023-04-25T03:11:50;94791.81;;;5.46;48.09
77871;BME280;67067;46.850;7.578;2023-04-25T03:12:52;94796.75;;;5.54;47.93
77871;BME280;67067;46.850;7.578;2023-04-25T03:13:53;94796.03;;;5.47;47.50
77871;BME280;67067;46.850;7.578;2023-04-25T03:14:58;94796.97;;;5.53;47.49
77871;BME280;67067;46.850;7.578;2023-04-25T03:15:59;94795.91;;;5.42;47.97
77871;BME280;67067;46.850;7.578;2023-04-25T03:17:04;94784.66;;;5.53;47.48
77871;BME280;67067;46.850;7.578;2023-04-25T03:18:09;94783.28;;;5.63;47.22
77871;BME280;67067;46.850;7.578;2023-04-25T03:19:10;94785.44;;;5.66;47.43
77871;BME280;67067;46.850;7.578;2023-04-25T03:20:12;94781.69;;;5.62;47.46
77871;BME280;67067;46.850;7.578;2023-04-25T03:21:16;94783.28;;;5.63;47.21
77871;BME280;67067;46.850;7.578;2023-04-25T03:22:18;94786.94;;;5.62;47.36
77871;BME280;67067;46.850;7.578;2023-04-25T03:23:20;94794.69;;;5.56;48.18
77871;BME280;67067;46.850;7.578;2023-04-25T03:24:21;94791.97;;;5.51;48.16
77871;BME280;67067;46.850;7.578;2023-04-25T03:25:26;94788.84;;;5.66;47.87
77871;BME280;67067;46.850;7.578;2023-04-25T03:26:30;94786.69;;;5.63;48.56
77871;BME280;67067;46.850;7.578;2023-04-25T03:27:33;94784.19;;;5.56;48.67
77871;BME280;67067;46.850;7.578;2023-04-25T03:28:36;94784.72;;;5.47;48.71
77871;BME280;67067;46.850;7.578;2023-04-25T03:29:38;94790.09;;;5.40;48.65
77871;BME280;67067;46.850;7.578;2023-04-25T03:30:39;94785.22;;;5.55;48.58
77871;BME280;67067;46.850;7.578;2023-04-25T03:31:41;94785.91;;;5.63;48.15
77871;BME280;67067;46.850;7.578;2023-04-25T03:32:43;94780.19;;;5.66;48.84
77871;BME280;67067;46.850;7.578;2023-04-25T03:33:49;94784.97;;;5.57;49.05
77871;BME280;67067;46.850;7.578;2023-04-25T03:34:54;94773.34;;;5.65;48.74
77871;BME280;67067;46.850;7.578;2023-04-25T03:35:57;94772.19;;;5.61;48.78
77871;BME280;67067;46.850;7.578;2023-04-25T03:37:04;94773.69;;;5.56;48.63
77871;BME280;67067;46.850;7.578;2023-04-25T03:38:11;94775.03;;;5.47;49.00
77871;BME280;67067;46.850;7.578;2023-04-25T03:39:14;94783.06;;;5.52;48.53
77871;BME280;67067;46.850;7.578;2023-04-25T03:40:20;94773.00;;;5.49;49.05
77871;BME280;67067;46.850;7.578;2023-04-25T03:41:41;94776.75;;;5.41;49.24
77871;BME280;67067;46.850;7.578;2023-04-25T03:42:49;94770.81;;;5.46;49.57
77871;BME280;67067;46.850;7.578;2023-04-25T03:43:53;94770.97;;;5.51;49.25
77871;BME280;67067;46.850;7.578;2023-04-25T03:44:55;94778.91;;;5.33;48.96
77871;BME280;67067;46.850;7.578;2023-04-25T03:45:56;94780.81;;;4.90;48.27
77871;BME280;67067;46.850;7.578;2023-04-25T03:47:01;94781.44;;;5.27;47.35
77871;BME280;67067;46.850;7.578;2023-04-25T03:48:04;94771.16;;;5.38;47.09
77871;BME280;67067;46.850;7.578;2023-04-25T03:49:05;94776.53;;;5.31;47.32
77871;BME280;67067;46.850;7.578;2023-04-25T03:50:25;94771.28;;;5.43;47.62
77871;BME280;67067;46.850;7.578;2023-04-25T03:51:27;94771.84;;;5.57;48.17
77871;BME280;67067;46.850;7.578;2023-04-25T03:52:29;94770.03;;;5.57;48.48
77871;BME280;67067;46.850;7.578;2023-04-25T03:53:32;94770.34;;;5.61;48.23
77871;BME280;67067;46.850;7.578;2023-04-25T03:54:52;94767.84;;;5.66;47.67
77871;BME280;67067;46.850;7.578;2023-04-25T03:55:56;94769.22;;;5.69;47.89
77871;BME280;67067;46.850;7.578;2023-04-25T03:56:57;94754.94;;;5.65;47.69
77871;BME280;67067;46.850;7.578;2023-04-25T03:58:03;94763.41;;;5.67;47.92
77871;BME280;67067;46.850;7.578;2023-04-25T03:59:04;94760.88;;;5.72;47.87
77871;BME280;67067;46.850;7.578;2023-04-25T04:00:06;94752.00;;;5.49;48.60
77871;BME280;67067;46.850;7.578;2023-04-25T04:01:13;94754.28;;;5.57;48.15
77871;BME280;67067;46.850;7.578;2023-04-25T04:02:15;94750.16;;;5.62;48.13
77871;BME280;67067;46.850;7.578;2023-04-25T04:03:19;94743.53;;;5.59;47.97
77871;BME280;67067;46.850;7.578;2023-04-25T04:04:22;94741.06;;;5.52;48.02
77871;BME280;67067;46.850;7.578;2023-04-25T04:05:24;94741.16;;;5.57;48.08
77871;BME280;67067;46.850;7.578;2023-04-25T04:06:29;94737.72;;;5.57;48.58
77871;BME280;67067;46.850;7.578;2023-04-25T04:07:38;94743.31;;;5.61;48.68
77871;BME280;67067;46.850;7.578;2023-04-25T04:08:43;94741.16;;;5.57;48.48
77871;BME280;67067;46.850;7.578;2023-04-25T04:09:46;94742.28;;;5.62;48.22
77871;BME280;67067;46.850;7.578;2023-04-25T04:10:53;94748.09;;;5.64;47.94
77871;BME280;67067;46.850;7.578;2023-04-25T04:11:55;94748.88;;;5.64;48.11
77871;BME280;67067;46.850;7.578;2023-04-25T04:12:56;94741.50;;;5.49;48.03
77871;BME280;67067;46.850;7.578;2023-04-25T04:13:58;94744.91;;;5.62;48.29
77871;BME280;67067;46.850;7.578;2023-04-25T04:15:01;94755.22;;;5.51;48.32
77871;BME280;67067;46.850;7.578;2023-04-25T04:16:02;94751.66;;;5.57;48.46
77871;BME280;67067;46.850;7.578;2023-04-25T04:17:05;94747.91;;;5.53;48.91
77871;BME280;67067;46.850;7.578;2023-04-25T04:18:10;94756.25;;;5.50;49.11
77871;BME280;67067;46.850;7.578;2023-04-25T04:19:12;94747.66;;;5.55;49.02
77871;BME280;67067;46.850;7.578;2023-04-25T04:20:18;94751.00;;;5.50;49.28
77871;BME280;67067;46.850;7.578;2023-04-25T04:21:20;94751.19;;;5.49;49.39
77871;BME280;67067;46.850;7.578;2023-04-25T04:22:24;94740.50;;;5.50;49.14
77871;BME280;67067;46.850;7.578;2023-04-25T04:23:32;94749.16;;;5.51;48.95
77871;BME280;67067;46.850;7.578;2023-04-25T04:24:33;94748.94;;;5.52;48.87
77871;BME280;67067;46.850;7.578;2023-04-25T04:25:39;94747.91;;;5.53;49.02
77871;BME280;67067;46.850;7.578;2023-04-25T04:27:13;94746.31;;;5.52;49.01
77871;BME280;67067;46.850;7.578;2023-04-25T04:28:27;94751.09;;;5.55;49.07
77871;BME280;67067;46.850;7.578;2023-04-25T04:29:34;94748.56;;;5.61;49.02
77871;BME280;67067;46.850;7.578;2023-04-25T04:32:30;94749.97;;;5.51;49.58
77871;BME280;67067;46.850;7.578;2023-04-25T04:33:35;94749.59;;;5.59;49.38
77871;BME280;67067;46.850;7.578;2023-04-25T04:34:39;94745.94;;;5.61;49.34
77871;BME280;67067;46.850;7.578;2023-04-25T04:35:41;94753.81;;;5.61;49.47
77871;BME280;67067;46.850;7.578;2023-04-25T04:36:44;94748.31;;;5.62;49.69
77871;BME280;67067;46.850;7.578;2023-04-25T04:37:49;94750.16;;;5.62;49.49
77871;BME280;67067;46.850;7.578;2023-04-25T04:38:53;94751.31;;;5.66;49.16
77871;BME280;67067;46.850;7.578;2023-04-25T04:40:06;94753.34;;;5.64;49.19
77871;BME280;67067;46.850;7.578;2023-04-25T04:41:18;94747.66;;;5.67;49.27
77871;BME280;67067;46.850;7.578;2023-04-25T04:42:33;94749.00;;;5.69;48.83
77871;BME280;67067;46.850;7.578;2023-04-25T04:43:40;94748.53;;;5.72;49.31
77871;BME280;67067;46.850;7.578;2023-04-25T04:44:50;94747.50;;;5.73;49.59
77871;BME280;67067;46.850;7.578;2023-04-25T04:46:19;94736.22;;;5.73;49.38
77871;BME280;67067;46.850;7.578;2023-04-25T04:47:31;94735.41;;;5.72;49.32
77871;BME280;67067;46.850;7.578;2023-04-25T04:48:54;94735.34;;;5.55;50.03
77871;BME280;67067;46.850;7.578;2023-04-25T04:50:14;94738.16;;;5.66;49.85
77871;BME280;67067;46.850;7.578;2023-04-25T04:51:52;94742.84;;;5.64;49.99
77871;BME280;67067;46.850;7.578;2023-04-25T04:53:11;94742.84;;;5.64;50.05
77871;BME280;67067;46.850;7.578;2023-04-25T04:54:32;94748.31;;;5.62;50.00
77871;BME280;67067;46.850;7.578;2023-04-25T04:55:51;94747.84;;;5.65;50.20
77871;BME280;67067;46.850;7.578;2023-04-25T04:57:11;94746.50;;;5.63;49.98
77871;BME280;67067;46.850;7.578;2023-04-25T04:58:33;94736.31;;;5.66;50.30
77871;BME280;67067;46.850;7.578;2023-04-25T05:00:01;94742.38;;;5.67;50.36
77871;BME280;67067;46.850;7.578;2023-04-25T05:01:23;94749.81;;;5.70;50.05
77871;BME280;67067;46.850;7.578;2023-04-25T05:02:42;94745.03;;;5.67;50.33
77871;BME280;67067;46.850;7.578;2023-04-25T05:04:01;94748.31;;;5.74;50.01
77871;BME280;67067;46.850;7.578;2023-04-25T05:05:29;94749.81;;;5.70;49.82
77871;BME280;67067;46.850;7.578;2023-04-25T05:06:48;94752.91;;;5.67;50.17
77871;BME280;67067;46.850;7.578;2023-04-25T05:07:50;94754.03;;;5.71;50.06
77871;BME280;67067;46.850;7.578;2023-04-25T05:09:00;94754.03;;;5.71;50.29
77871;BME280;67067;46.850;7.578;2023-04-25T05:10:19;94751.75;;;5.63;50.47
77871;BME280;67067;46.850;7.578;2023-04-25T05:11:38;94752.91;;;5.67;50.12
77871;BME280;67067;46.850;7.578;2023-04-25T05:13:00;94754.50;;;5.68;50.44
77871;BME280;67067;46.850;7.578;2023-04-25T05:14:34;94743.75;;;5.69;50.35
77871;BME280;67067;46.850;7.578;2023-04-25T05:15:50;94744.78;;;5.68;50.34
77871;BME280;67067;46.850;7.578;2023-04-25T05:17:30;94742.97;;;5.69;49.71
77871;BME280;67067;46.850;7.578;2023-04-25T05:18:40;94744.44;;;5.77;49.64
77871;BME280;67067;46.850;7.578;2023-04-25T05:19:55;94753.66;;;5.79;49.60
77871;BME280;67067;46.850;7.578;2023-04-25T05:21:08;94757.41;;;5.83;49.73
77871;BME280;67067;46.850;7.578;2023-04-25T05:22:38;94757.50;;;5.88;49.63
77871;BME280;67067;46.850;7.578;2023-04-25T05:23:47;94764.94;;;5.92;49.47
77871;BME280;67067;46.850;7.578;2023-04-25T05:25:15;94764.72;;;5.93;49.85
77871;BME280;67067;46.850;7.578;2023-04-25T05:26:37;94769.25;;;5.98;49.70
77871;BME280;67067;46.850;7.578;2023-04-25T05:27:58;94779.84;;;6.03;49.92
77871;BME280;67067;46.850;7.578;2023-04-25T05:29:18;94788.88;;;6.07;50.04
77871;BME280;67067;46.850;7.578;2023-04-25T05:30:36;94801.56;;;6.10;49.86
77871;BME280;67067;46.850;7.578;2023-04-25T05:31:48;94810.50;;;5.97;50.21
77871;BME280;67067;46.850;7.578;2023-04-25T05:32:51;94809.88;;;6.07;50.27
77871;BME280;67067;46.850;7.578;2023-04-25T05:33:52;94819.06;;;5.93;50.55
77871;BME280;67067;46.850;7.578;2023-04-25T05:34:59;94814.81;;;6.03;50.20
77871;BME280;67067;46.850;7.578;2023-04-25T05:36:06;94814.81;;;6.03;50.47
77871;BME280;67067;46.850;7.578;2023-04-25T05:37:10;94814.00;;;6.03;50.83
77871;BME280;67067;46.850;7.578;2023-04-25T05:38:23;94811.28;;;5.98;50.94
77871;BME280;67067;46.850;7.578;2023-04-25T05:39:51;94815.41;;;5.94;51.30
77871;BME280;67067;46.850;7.578;2023-04-25T05:41:06;94820.66;;;5.94;51.24
77871;BME280;67067;46.850;7.578;2023-04-25T05:42:26;94824.31;;;5.93;51.62
77871;BME280;67067;46.850;7.578;2023-04-25T05:43:41;94821.13;;;5.91;51.49
77871;BME280;67067;46.850;7.578;2023-04-25T05:44:58;94825.81;;;5.88;51.32
77871;BME280;67067;46.850;7.578;2023-04-25T05:46:32;94825.25;;;5.86;51.70
77871;BME280;67067;46.850;7.578;2023-04-25T05:47:54;94822.03;;;5.84;51.62
77871;BME280;67067;46.850;7.578;2023-04-25T05:49:28;94819.22;;;5.86;51.57
77871;BME280;67067;46.850;7.578;2023-04-25T05:50:55;94819.22;;;5.86;51.29
77871;BME280;67067;46.850;7.578;2023-04-25T05:52:16;94809.94;;;5.83;52.09
77871;BME280;67067;46.850;7.578;2023-04-25T05:53:26;94809.25;;;5.88;52.02
77871;BME280;67067;46.850;7.578;2023-04-25T05:54:34;94811.91;;;5.88;51.81
77871;BME280;67067;46.850;7.578;2023-04-25T05:55:36;94810.63;;;5.91;52.02
77871;BME280;67067;46.850;7.578;2023-04-25T05:56:53;94814.28;;;5.90;51.79
77871;BME280;67067;46.850;7.578;2023-04-25T05:57:55;94804.22;;;5.86;52.32
77871;BME280;67067;46.850;7.578;2023-04-25T05:58:57;94818.38;;;5.85;52.30